Time;durP1;ratioP1;P1;durP2;ratioP2;P2;SDS_P1;SDS_P2;PMS_P1;PMS_P2;Temp;Humidity;BMP_temperature;BMP_pressure;BME280_temperature;BME280_humidity;BME280_pressure;Samples;Min_cycle;Max_cycle;Signal;HPM_P1;HPM_P2
2022/06/25 00:01:49;;;;;;;12.25;6.40;;;;;;;19.95;60.98;100294.66;5136218;28;20085;-67
2022/06/25 00:07:01;;;;;;;9.88;6.55;;;;;;;19.91;61.59;100294.31;5136475;28;20376;-68
2022/06/25 00:09:27;;;;;;;9.02;7.45;;;;;;;19.76;62.25;100291.16;5136176;28;20086;-66
2022/06/25 00:14:39;;;;;;;10.07;6.43;;;;;;;19.70;62.67;100294.84;5140181;27;20505;-66
2022/06/25 00:17:06;;;;;;;12.18;6.57;;;;;;;19.64;63.00;100293.00;5140235;27;20125;-66
2022/06/25 00:19:33;;;;;;;14.57;7.60;;;;;;;19.55;63.56;100288.94;5139860;27;20057;-66
2022/06/25 00:21:59;;;;;;;9.45;6.72;;;;;;;19.48;63.43;100297.19;5140291;27;20543;-67
2022/06/25 00:24:26;;;;;;;10.65;6.95;;;;;;;19.44;64.18;100279.66;5139713;27;20075;-66
2022/06/25 00:26:52;;;;;;;8.93;6.97;;;;;;;19.43;64.14;100287.00;5139407;27;20079;-67
2022/06/25 00:29:19;;;;;;;10.38;6.75;;;;;;;19.42;64.30;100293.50;5139459;27;20047;-67
2022/06/25 00:31:45;;;;;;;11.68;7.15;;;;;;;19.34;64.70;100291.06;5139483;27;20050;-67
2022/06/25 00:34:12;;;;;;;14.18;7.80;;;;;;;19.32;64.79;100292.38;5139436;27;20047;-67
2022/06/25 00:36:39;;;;;;;9.40;6.82;;;;;;;19.27;64.35;100288.44;5138935;27;20142;-67
2022/06/25 00:39:05;;;;;;;11.52;7.53;;;;;;;19.29;64.33;100292.84;5138893;27;20050;-68
2022/06/25 00:41:32;;;;;;;11.57;7.18;;;;;;;19.25;64.56;100285.13;5139253;27;20082;-67
2022/06/25 00:43:59;;;;;;;11.00;7.03;;;;;;;19.19;64.62;100287.94;5139471;27;20050;-66
2022/06/25 00:46:25;;;;;;;13.95;7.18;;;;;;;19.24;64.57;100282.63;5139119;27;20497;-66
2022/06/25 00:48:52;;;;;;;11.30;7.15;;;;;;;19.34;64.14;100282.09;5138853;27;20509;-67
2022/06/25 00:51:22;;;;;;;10.25;7.05;;;;;;;19.31;64.19;100287.97;5139660;27;20135;-67
2022/06/25 00:53:50;;;;;;;19.43;9.33;;;;;;;19.26;64.25;100288.69;5139068;27;20130;-67
2022/06/25 00:56:18;;;;;;;14.10;8.90;;;;;;;19.26;64.07;100283.25;5139169;27;20641;-66
2022/06/25 00:58:45;;;;;;;13.30;8.75;;;;;;;19.23;64.02;100279.09;5138908;27;20126;-67
2022/06/25 01:01:13;;;;;;;17.48;9.57;;;;;;;19.24;64.36;100277.19;5138363;27;20064;-67
2022/06/25 01:03:40;;;;;;;14.85;9.45;;;;;;;19.25;64.28;100276.16;5138488;27;20057;-67
2022/06/25 01:09:49;;;;;;;20.05;12.90;;;;;;;18.99;64.75;100261.81;5139334;27;20157;-67
2022/06/25 01:12:15;;;;;;;17.80;12.35;;;;;;;18.97;65.08;100263.09;5139056;27;20146;-67
2022/06/25 01:14:43;;;;;;;21.42;13.07;;;;;;;18.91;66.09;100262.09;5138369;27;20047;-67
2022/06/25 01:17:10;;;;;;;18.13;13.68;;;;;;;18.96;65.94;100264.16;5139126;27;20133;-67
2022/06/25 01:19:37;;;;;;;20.13;14.85;;;;;;;18.98;66.21;100265.59;5138446;27;20521;-67
2022/06/25 01:22:07;;;;;;;23.90;15.32;;;;;;;18.97;66.28;100258.50;5139093;27;20082;-67
2022/06/25 01:24:34;;;;;;;24.38;17.00;;;;;;;18.95;66.79;100265.22;5137544;27;20138;-67
2022/06/25 01:27:11;;;;;;;23.65;15.07;;;;;;;18.98;66.02;100260.16;5137633;27;20100;-66
2022/06/25 01:29:38;;;;;;;24.05;16.80;;;;;;;19.05;66.04;100259.25;5138059;27;20053;-66
2022/06/25 01:32:05;;;;;;;20.75;15.20;;;;;;;19.07;65.42;100265.28;5137663;27;20067;-66
2022/06/25 01:34:32;;;;;;;24.63;15.52;;;;;;;19.06;65.48;100267.16;5138318;27;20047;-66
2022/06/25 01:36:58;;;;;;;24.27;16.80;;;;;;;19.06;65.48;100267.16;5138051;27;20189;-67
2022/06/25 01:39:24;;;;;;;25.08;16.63;;;;;;;19.09;66.03;100266.72;5137924;27;20206;-67
2022/06/25 01:41:51;;;;;;;26.60;17.55;;;;;;;19.09;65.98;100274.03;5138011;27;20086;-67
2022/06/25 01:44:17;;;;;;;24.38;17.55;;;;;;;19.05;66.02;100270.13;5138304;27;20138;-67
2022/06/25 01:46:44;;;;;;;27.33;17.35;;;;;;;19.04;65.91;100273.91;5137995;27;20141;-67
2022/06/25 01:49:11;;;;;;;24.27;18.05;;;;;;;19.00;66.22;100274.34;5138115;27;20043;-67
2022/06/25 01:51:37;;;;;;;23.85;17.63;;;;;;;18.98;66.09;100265.59;5138356;27;20484;-67
2022/06/25 01:54:04;;;;;;;24.08;17.08;;;;;;;19.04;66.10;100263.84;5137865;27;20085;-67
2022/06/25 01:56:30;;;;;;;23.17;17.50;;;;;;;18.95;66.49;100270.66;5137730;27;20053;-67
2022/06/25 01:58:57;;;;;;;24.17;17.27;;;;;;;18.97;66.37;100272.09;5137821;27;20083;-67
2022/06/25 02:01:23;;;;;;;25.50;17.35;;;;;;;18.96;66.62;100269.59;5138585;27;20440;-67
2022/06/25 02:03:50;;;;;;;25.30;16.25;;;;;;;18.93;66.49;100267.31;5137735;27;20051;-67
2022/06/25 02:06:17;;;;;;;27.00;16.85;;;;;;;18.92;66.18;100280.06;5137017;27;20051;-67
2022/06/25 02:08:44;;;;;;;23.77;17.70;;;;;;;18.90;66.59;100273.19;5137095;27;20147;-67
2022/06/25 02:11:10;;;;;;;24.10;17.38;;;;;;;18.92;66.76;100269.22;5118755;27;20085;-67
2022/06/25 02:13:37;;;;;;;24.55;17.58;;;;;;;18.90;66.82;100268.59;5137422;27;20419;-67
2022/06/25 02:16:05;;;;;;;25.45;17.05;;;;;;;18.84;67.14;100277.63;5137243;27;20134;-67
2022/06/25 02:18:32;;;;;;;22.80;16.85;;;;;;;18.79;67.12;100272.88;5137168;27;20051;-67
2022/06/25 02:20:58;;;;;;;30.98;17.17;;;;;;;18.72;67.30;100266.69;5137565;27;20138;-67
2022/06/25 02:23:25;;;;;;;24.17;16.10;;;;;;;18.71;67.41;100272.34;5137037;27;20099;-67
2022/06/25 02:25:52;;;;;;;29.50;16.60;;;;;;;18.74;67.24;100267.28;5137018;27;20216;-67
2022/06/25 02:28:19;;;;;;;25.17;17.60;;;;;;;18.70;67.54;100271.50;5137048;27;20075;-67
2022/06/25 02:30:45;;;;;;;21.13;15.80;;;;;;;18.64;67.66;100279.72;5137440;27;20047;-68
2022/06/25 02:33:14;;;;;;;25.73;16.50;;;;;;;18.64;67.72;100277.00;5137427;27;20426;-67
2022/06/25 02:35:42;;;;;;;22.08;15.75;;;;;;;18.67;67.52;100284.72;5137213;27;20046;-67
2022/06/25 02:38:10;;;;;;;24.92;16.00;;;;;;;18.68;66.66;100287.19;5137769;27;20442;-67
2022/06/25 02:40:37;;;;;;;20.50;16.88;;;;;;;18.72;66.96;100279.44;5137743;27;20097;-67
2022/06/25 02:43:05;;;;;;;27.02;16.65;;;;;;;18.68;67.27;100291.81;5137065;27;20043;-68
2022/06/25 02:45:32;;;;;;;21.98;16.45;;;;;;;18.70;67.09;100292.41;5137036;27;20053;-67
2022/06/25 02:47:59;;;;;;;19.98;15.63;;;;;;;18.70;67.15;100285.09;5135934;27;20063;-67
2022/06/25 02:50:25;;;;;;;25.45;17.02;;;;;;;18.60;67.32;100286.66;5136997;27;20078;-67
2022/06/25 02:52:52;;;;;;;20.95;16.20;;;;;;;18.64;67.11;100290.59;5136603;27;20055;-68
2022/06/25 02:55:19;;;;;;;25.60;16.90;;;;;;;18.72;66.32;100295.72;5135959;27;20526;-67
2022/06/25 03:00:31;;;;;;;21.85;16.50;;;;;;;18.74;67.09;100305.31;5135752;27;20054;-67
2022/06/25 03:02:57;;;;;;;25.27;15.75;;;;;;;18.72;66.98;100314.75;5136862;27;20047;-67
2022/06/25 03:05:24;;;;;;;24.83;16.20;;;;;;;18.86;66.56;100326.31;5135413;27;20047;-67
2022/06/25 03:07:50;;;;;;;24.02;16.38;;;;;;;18.79;66.91;100331.81;5136805;27;20070;-67
2022/06/25 03:10:17;;;;;;;24.05;16.70;;;;;;;18.78;66.65;100330.16;5135922;27;20134;-67
2022/06/25 03:12:44;;;;;;;20.40;15.77;;;;;;;18.79;66.52;100345.41;5136010;27;20485;-67
2022/06/25 03:15:10;;;;;;;24.60;14.80;;;;;;;18.83;66.23;100346.66;5135444;27;20137;-67
2022/06/25 03:17:37;;;;;;;21.80;16.05;;;;;;;18.84;66.58;100352.91;5135807;27;20096;-67
2022/06/25 03:20:04;;;;;;;27.50;16.30;;;;;;;18.81;66.75;100351.47;5135977;27;20087;-67
2022/06/25 03:22:31;;;;;;;22.95;16.10;;;;;;;18.78;67.18;100346.47;5135812;27;20094;-67
2022/06/25 03:24:57;;;;;;;23.67;17.27;;;;;;;18.70;67.62;100357.63;5135868;27;20139;-67
2022/06/25 03:27:24;;;;;;;25.80;16.42;;;;;;;18.70;67.55;100354.91;5135204;27;20051;-67
2022/06/25 03:29:50;;;;;;;21.05;15.32;;;;;;;18.70;66.61;100366.63;5135893;27;20129;-67
2022/06/25 03:32:17;;;;;;;26.92;19.63;;;;;;;18.65;67.14;100361.00;5136284;27;20083;-69
2022/06/25 03:34:43;;;;;;;24.10;18.58;;;;;;;18.67;67.66;100368.94;5136018;27;20135;-67
2022/06/25 03:37:10;;;;;;;28.13;19.05;;;;;;;18.65;67.34;100365.59;5135659;27;20475;-67
2022/06/25 03:39:36;;;;;;;28.75;19.92;;;;;;;18.48;68.29;100365.31;5135527;27;20074;-67
2022/06/25 03:42:03;;;;;;;29.92;20.85;;;;;;;18.54;68.27;100373.41;5135468;27;20085;-67
2022/06/25 03:44:30;;;;;;;29.73;20.92;;;;;;;18.62;67.65;100379.63;5135643;27;20101;-67
2022/06/25 03:46:57;;;;;;;26.92;20.83;;;;;;;18.64;67.85;100375.66;5135519;27;20110;-68
2022/06/25 03:49:23;;;;;;;27.77;20.55;;;;;;;18.43;68.36;100381.47;5135471;28;20130;-67
2022/06/25 03:51:50;;;;;;;30.88;20.85;;;;;;;18.61;67.79;100372.53;5135698;28;20116;-68
2022/06/25 03:54:17;;;;;;;29.05;20.00;;;;;;;18.65;67.73;100392.78;5135875;28;20195;-67
2022/06/25 03:56:43;;;;;;;26.00;19.02;;;;;;;18.76;67.25;100390.19;5135534;28;20448;-67
2022/06/25 03:59:10;;;;;;;24.38;18.23;;;;;;;18.90;67.01;100392.78;5135776;28;20535;-68
2022/06/25 04:01:37;;;;;;;26.02;18.30;;;;;;;18.99;66.30;100392.28;5135059;28;20047;-68
2022/06/25 04:04:03;;;;;;;23.70;18.48;;;;;;;18.91;66.92;100405.31;5136496;28;20082;-69
2022/06/25 04:06:30;;;;;;;27.33;17.92;;;;;;;18.81;67.06;100400.38;5116637;28;20141;-67
2022/06/25 04:08:57;;;;;;;23.73;17.92;;;;;;;18.99;66.92;100415.94;5135139;28;20074;-67
2022/06/25 04:11:23;;;;;;;32.90;18.38;;;;;;;19.07;66.63;100409.38;5135188;28;20133;-67
2022/06/25 04:13:50;;;;;;;24.30;16.85;;;;;;;19.12;65.80;100418.53;5134998;28;20093;-67
2022/06/25 04:16:17;;;;;;;26.25;17.35;;;;;;;19.21;65.96;100410.91;5134839;27;20112;-68
2022/06/25 04:18:44;;;;;;;25.45;17.52;;;;;;;19.27;66.01;100415.44;5135088;28;20524;-68
2022/06/25 04:21:10;;;;;;;24.88;17.02;;;;;;;19.28;65.84;100414.41;5134624;28;20054;-67
2022/06/25 04:23:37;;;;;;;27.00;17.92;;;;;;;19.27;65.80;100412.72;5135198;28;20078;-67
2022/06/25 04:26:03;;;;;;;22.45;18.08;;;;;;;19.31;65.81;100418.53;5134889;28;20079;-67
2022/06/25 04:31:16;;;;;;;23.63;17.20;;;;;;;19.26;65.52;100419.22;5135337;28;20526;-67
2022/06/25 04:33:42;;;;;;;29.75;19.42;;;;;;;19.21;66.13;100422.63;5135209;28;20547;-68
2022/06/25 04:36:09;;;;;;;25.20;18.25;;;;;;;19.36;65.74;100422.25;5134940;28;20138;-67
2022/06/25 04:38:35;;;;;;;23.73;18.00;;;;;;;19.26;65.76;100425.50;5135630;28;20463;-67
2022/06/25 04:41:02;;;;;;;24.65;18.70;;;;;;;19.31;65.76;100424.84;5134581;28;20087;-67
2022/06/25 04:43:28;;;;;;;24.02;18.05;;;;;;;19.33;65.63;100424.59;5135108;28;20082;-67
2022/06/25 04:45:55;;;;;;;24.92;17.55;;;;;;;19.28;65.64;100422.56;5135442;28;20500;-67
2022/06/25 04:48:22;;;;;;;22.92;18.10;;;;;;;19.34;65.29;100424.34;5134549;28;20145;-67
2022/06/25 04:50:48;;;;;;;23.85;17.50;;;;;;;19.43;65.42;100428.47;5134593;28;20145;-67
2022/06/25 04:53:15;;;;;;;23.27;18.27;;;;;;;19.53;65.24;100440.72;5134179;28;20047;-67
2022/06/25 04:55:42;;;;;;;25.17;18.05;;;;;;;19.57;65.21;100431.84;5134451;28;20094;-67
2022/06/25 04:58:09;;;;;;;25.05;16.85;;;;;;;19.54;64.77;100442.38;5136168;28;20082;-67
2022/06/25 05:00:37;;;;;;;24.23;17.35;;;;;;;19.66;64.81;100435.94;5139159;27;20126;-68
2022/06/25 05:03:07;;;;;;;25.05;17.75;;;;;;;19.65;65.11;100445.16;5138827;27;20498;-67
2022/06/25 05:05:35;;;;;;;22.27;17.70;;;;;;;19.62;65.42;100448.34;5138934;27;20071;-67
2022/06/25 05:08:02;;;;;;;23.45;16.65;;;;;;;19.77;64.84;100453.44;5138903;27;20043;-67
2022/06/25 05:10:28;;;;;;;22.30;17.20;;;;;;;19.75;64.65;100455.53;5139291;27;20134;-67
2022/06/25 05:13:13;;;;;;;21.80;17.10;;;;;;;19.68;64.81;100449.34;5138907;27;20057;-67
2022/06/25 05:15:42;;;;;;;22.20;17.92;;;;;;;19.69;64.86;100453.72;5139327;27;20062;-67
2022/06/25 05:18:10;;;;;;;20.40;16.35;;;;;;;19.76;64.71;100457.19;5138909;27;20535;-67
2022/06/25 05:20:38;;;;;;;24.48;17.00;;;;;;;19.79;64.97;100464.09;5138963;27;20487;-68
2022/06/25 05:23:05;;;;;;;24.63;17.20;;;;;;;19.75;64.41;100462.88;5139921;27;20047;-67
2022/06/25 05:25:32;;;;;;;23.83;16.45;;;;;;;19.75;64.79;100465.59;5139334;27;20047;-67
2022/06/25 05:27:59;;;;;;;26.10;18.90;;;;;;;19.69;65.06;100472.78;5138418;27;20087;-67
2022/06/25 05:30:26;;;;;;;26.80;18.13;;;;;;;19.78;64.08;100476.88;5138122;27;20138;-67
2022/06/25 05:32:53;;;;;;;20.75;15.93;;;;;;;19.81;64.38;100465.53;5138513;27;20082;-67
2022/06/25 05:35:19;;;;;;;21.85;15.52;;;;;;;19.91;63.86;100471.28;5138635;27;20126;-67
2022/06/25 05:37:46;;;;;;;20.02;14.90;;;;;;;19.92;63.20;100472.94;5138940;27;20083;-67
2022/06/25 05:40:13;;;;;;;20.70;14.45;;;;;;;19.92;63.91;100474.81;5138626;27;20057;-67
2022/06/25 05:42:39;;;;;;;17.70;13.15;;;;;;;19.93;62.73;100469.16;5138506;27;20093;-67
2022/06/25 05:45:06;;;;;;;18.90;12.90;;;;;;;20.17;61.06;100469.25;5138866;27;20047;-67
2022/06/25 05:47:33;;;;;;;16.95;13.27;;;;;;;20.33;61.15;100473.25;5138054;27;20078;-67
2022/06/25 05:50:01;;;;;;;20.40;14.52;;;;;;;20.37;61.89;100472.53;5137300;27;20096;-67
2022/06/25 05:52:28;;;;;;;20.27;14.30;;;;;;;20.28;61.49;100475.81;5138377;27;20533;-67
2022/06/25 05:54:54;;;;;;;15.40;12.80;;;;;;;20.37;61.51;100475.25;5138120;27;20092;-67
2022/06/25 05:57:21;;;;;;;16.05;12.13;;;;;;;20.38;61.44;100474.19;5137784;27;20419;-68
2022/06/25 05:59:48;;;;;;;27.80;13.63;;;;;;;20.37;61.29;100469.81;5138067;27;20075;-67
2022/06/25 06:02:14;;;;;;;17.75;12.40;;;;;;;20.40;61.38;100474.00;5138350;27;20082;-67
2022/06/25 06:04:41;;;;;;;14.43;12.52;;;;;;;20.36;61.25;100481.78;5137992;27;20142;-67
2022/06/25 06:07:07;;;;;;;15.05;12.30;;;;;;;20.44;61.09;100481.47;5137668;27;20410;-67
2022/06/25 06:09:34;;;;;;;18.23;12.45;;;;;;;20.52;60.99;100480.31;5137239;27;20397;-67
2022/06/25 06:12:01;;;;;;;16.50;11.82;;;;;;;20.46;61.20;100486.72;5137568;27;20055;-67
2022/06/25 06:14:28;;;;;;;16.52;12.43;;;;;;;20.61;61.33;100486.28;5136882;27;20051;-69
2022/06/25 06:16:56;;;;;;;19.30;13.25;;;;;;;20.66;60.88;100486.41;5138210;27;20047;-72
2022/06/25 06:19:23;;;;;;;18.60;13.18;;;;;;;20.60;61.32;100490.09;5138139;27;20072;-71
2022/06/25 06:21:50;;;;;;;19.35;14.00;;;;;;;20.74;60.81;100480.63;5138904;27;20047;-71
2022/06/25 06:24:16;;;;;;;21.13;12.95;;;;;;;20.89;60.32;100478.28;5138467;27;20047;-71
2022/06/25 06:26:43;;;;;;;19.00;12.55;;;;;;;20.74;60.86;100491.53;5137615;27;20489;-71
2022/06/25 06:29:09;;;;;;;16.75;12.70;;;;;;;20.99;59.57;100482.34;5138410;27;20142;-72
2022/06/25 06:31:36;;;;;;;18.48;12.68;;;;;;;21.02;59.42;100493.59;5138409;27;20545;-72
2022/06/25 06:34:02;;;;;;;22.75;12.68;;;;;;;21.03;59.35;100489.81;5137807;27;20213;-72
2022/06/25 06:36:29;;;;;;;19.73;12.52;;;;;;;21.20;59.22;100494.59;5137745;27;20084;-72
2022/06/25 06:38:57;;;;;;;17.27;11.60;;;;;;;21.24;58.66;100495.78;5138495;27;20395;-72
2022/06/25 06:41:24;;;;;;;15.90;12.30;;;;;;;21.33;58.36;100500.66;5120000;27;20138;-72
2022/06/25 06:43:51;;;;;;;16.15;11.90;;;;;;;21.03;58.73;100502.63;5138286;27;20121;-72
2022/06/25 06:46:19;;;;;;;14.63;12.55;;;;;;;21.12;58.94;100499.34;5138535;27;20078;-72
2022/06/25 06:48:46;;;;;;;18.02;10.95;;;;;;;21.29;58.33;100504.94;5137264;27;20047;-72
2022/06/25 06:51:12;;;;;;;17.27;12.63;;;;;;;21.38;57.68;100510.84;5137723;27;20096;-72
2022/06/25 06:53:39;;;;;;;14.82;11.90;;;;;;;21.40;57.70;100510.63;5138070;27;20067;-71
2022/06/25 06:56:06;;;;;;;13.50;11.27;;;;;;;21.35;57.55;100509.41;5138360;27;20518;-71
2022/06/25 06:58:32;;;;;;;14.02;10.48;;;;;;;21.39;57.71;100509.81;5138104;27;20078;-71
2022/06/25 07:00:59;;;;;;;15.70;11.95;;;;;;;21.47;57.41;100514.06;5138373;27;20089;-71
2022/06/25 07:03:26;;;;;;;14.90;10.82;;;;;;;21.32;57.60;100511.78;5119055;27;20047;-72
2022/06/25 07:05:55;;;;;;;15.50;11.50;;;;;;;21.47;57.41;100514.06;5137610;27;20093;-72
2022/06/25 07:08:21;;;;;;;17.48;11.55;;;;;;;21.71;56.88;100507.53;5137731;27;20539;-72
2022/06/25 07:10:48;;;;;;;17.88;11.98;;;;;;;21.69;56.88;100497.91;5138349;27;20535;-72
2022/06/25 07:13:14;;;;;;;12.88;10.43;;;;;;;21.77;56.33;100511.19;5137907;27;20047;-72
2022/06/25 07:15:41;;;;;;;13.45;10.90;;;;;;;21.68;56.51;100508.00;5138280;27;20055;-72
2022/06/25 07:18:08;;;;;;;12.88;10.43;;;;;;;21.69;56.92;100515.09;5137563;27;20119;-72
2022/06/25 07:20:34;;;;;;;13.07;10.15;;;;;;;21.81;55.86;100509.69;5137678;27;20083;-72
2022/06/25 07:23:01;;;;;;;15.32;11.48;;;;;;;21.87;55.40;100513.34;5137382;27;20047;-72
2022/06/25 07:25:28;;;;;;;15.52;10.65;;;;;;;22.08;54.91;100509.94;5137787;27;20047;-72
2022/06/25 07:27:54;;;;;;;16.40;9.93;;;;;;;22.36;53.99;100498.25;5137631;27;20047;-72
2022/06/25 07:30:21;;;;;;;14.32;10.45;;;;;;;22.55;53.66;100504.34;5137661;27;20146;-71
2022/06/25 07:32:47;;;;;;;14.52;9.73;;;;;;;22.57;53.87;100504.94;5138561;27;20054;-71
2022/06/25 07:35:14;;;;;;;17.35;10.25;;;;;;;23.21;52.07;100504.69;5137850;27;20074;-71
2022/06/25 07:37:42;;;;;;;12.50;9.73;;;;;;;23.48;51.45;100499.34;5137828;27;20078;-71
2022/06/25 07:40:09;;;;;;;12.80;9.90;;;;;;;23.85;50.21;100498.78;5136994;27;20475;-71
2022/06/25 07:42:35;;;;;;;15.63;9.27;;;;;;;24.15;49.47;100493.69;5136776;27;20115;-72
2022/06/25 07:45:03;;;;;;;20.27;9.57;;;;;;;24.08;49.24;100486.75;5135874;27;20500;-71
2022/06/25 07:47:36;;;;;;;14.35;9.35;;;;;;;24.01;48.32;100494.34;5136412;27;20058;-71
2022/06/25 07:52:50;;;;;;;18.52;8.75;;;;;;;24.41;48.04;100496.75;5137293;28;20496;-71
2022/06/25 07:55:19;;;;;;;15.68;8.95;;;;;;;24.89;47.18;100490.34;5136564;28;20400;-71
2022/06/25 07:57:46;;;;;;;12.00;8.55;;;;;;;25.29;46.05;100491.78;5135857;28;20047;-72
2022/06/25 08:00:13;;;;;;;14.00;8.68;;;;;;;25.51;45.61;100488.91;5136116;28;20072;-72
2022/06/25 08:02:40;;;;;;;12.52;8.75;;;;;;;25.22;45.65;100488.44;5136231;28;20138;-71
2022/06/25 08:05:07;;;;;;;13.20;7.10;;;;;;;25.18;44.27;100500.22;5136515;28;20216;-72
2022/06/25 08:07:33;;;;;;;9.63;7.07;;;;;;;25.11;45.05;100509.50;5135438;28;20055;-70
2022/06/25 08:10:01;;;;;;;9.80;7.30;;;;;;;25.30;44.28;100501.66;5135798;28;20159;-70
2022/06/25 08:12:27;;;;;;;11.50;8.48;;;;;;;24.78;45.02;100499.56;5135843;28;20070;-71
2022/06/25 08:14:54;;;;;;;13.32;8.73;;;;;;;24.36;46.36;100504.88;5136831;27;20075;-71
2022/06/25 08:17:20;;;;;;;13.75;8.65;;;;;;;24.21;47.04;100514.59;5137765;28;20070;-71
2022/06/25 08:19:47;;;;;;;14.43;8.82;;;;;;;24.29;46.80;100499.59;5136357;28;20102;-72
2022/06/25 08:22:13;;;;;;;12.27;8.98;;;;;;;24.01;47.09;100508.84;5137451;28;20119;-71
2022/06/25 08:24:40;;;;;;;11.32;8.85;;;;;;;24.15;47.20;100507.38;5136862;28;20051;-71
2022/06/25 08:27:07;;;;;;;13.07;8.52;;;;;;;24.41;46.42;100511.28;5136519;28;20078;-71
2022/06/25 08:29:33;;;;;;;11.18;7.78;;;;;;;24.68;46.10;100505.81;5136775;28;20169;-72
2022/06/25 08:32:00;;;;;;;12.85;8.70;;;;;;;25.41;44.88;100509.97;5136460;28;20086;-71
2022/06/25 08:34:27;;;;;;;16.75;8.57;;;;;;;25.83;43.60;100515.47;5138240;27;20051;-71
2022/06/25 08:36:54;;;;;;;11.95;8.27;;;;;;;26.35;42.50;100513.78;5141655;27;20114;-71
2022/06/25 08:39:20;;;;;;;12.95;8.50;;;;;;;26.79;41.14;100517.75;5139643;27;20543;-71
2022/06/25 08:41:47;;;;;;;9.10;7.25;;;;;;;26.85;40.83;100523.25;5139229;27;20469;-71
2022/06/25 08:44:13;;;;;;;11.95;8.75;;;;;;;26.16;42.41;100516.97;5139496;27;20470;-71
2022/06/25 08:46:40;;;;;;;11.70;8.45;;;;;;;26.38;41.50;100519.59;5138688;27;20135;-71
2022/06/25 08:49:09;;;;;;;14.02;8.07;;;;;;;26.15;42.35;100520.00;5138449;27;20062;-72
2022/06/25 08:51:37;;;;;;;18.23;8.52;;;;;;;25.65;43.08;100516.78;5139228;27;20047;-71
2022/06/25 08:54:08;;;;;;;11.52;8.00;;;;;;;25.65;42.83;100521.41;5139342;27;20517;-71
2022/06/25 08:56:35;;;;;;;13.35;8.30;;;;;;;25.67;42.87;100522.81;5139160;27;20079;-71
2022/06/25 08:59:02;;;;;;;11.80;8.45;;;;;;;25.65;43.09;100527.75;5139254;27;20043;-71
2022/06/25 09:01:29;;;;;;;13.30;7.68;;;;;;;25.36;43.50;100519.00;5140400;27;20111;-71
2022/06/25 09:03:56;;;;;;;19.70;9.25;;;;;;;25.28;43.75;100517.59;5139228;27;20494;-72
2022/06/25 09:06:23;;;;;;;15.80;8.10;;;;;;;25.68;43.18;100526.38;5139963;27;20483;-71
2022/06/25 09:09:10;;;;;;;10.85;8.00;;;;;;;25.67;42.59;100520.06;5139063;27;20085;-72
2022/06/25 09:12:05;;;;;;;13.75;8.23;;;;;;;25.66;42.63;100525.84;5139375;27;20047;-71
2022/06/25 09:14:34;;;;;;;9.82;7.72;;;;;;;25.77;42.13;100516.53;5139219;27;20130;-71
2022/06/25 09:17:04;;;;;;;11.02;8.10;;;;;;;25.81;42.26;100531.41;5138902;27;20097;-72
2022/06/25 09:19:43;;;;;;;13.25;8.43;;;;;;;25.55;42.78;100523.00;5139680;27;20047;-72
2022/06/25 09:22:13;;;;;;;9.57;8.05;;;;;;;25.47;43.08;100520.72;5139435;27;20481;-72
2022/06/25 09:24:44;;;;;;;10.77;8.57;;;;;;;25.33;42.54;100516.78;5139776;27;20047;-72
2022/06/25 09:27:11;;;;;;;;;;;;;;;25.18;43.36;100524.91;5140670;27;20094;-72
2022/06/25 09:29:39;;;;;;;10.90;7.75;;;;;;;25.35;43.15;100528.34;5140778;27;19950;-72
2022/06/25 09:32:06;;;;;;;9.98;7.78;;;;;;;25.11;43.94;100522.41;5140703;27;20082;-72
2022/06/25 09:34:35;;;;;;;10.85;7.22;;;;;;;24.90;44.42;100513.13;5140708;27;20081;-72
2022/06/25 09:37:15;;;;;;;13.85;7.78;;;;;;;25.18;44.00;100525.75;5140972;27;20077;-71
2022/06/25 09:39:42;;;;;;;10.88;8.30;;;;;;;24.70;44.61;100526.66;5142182;27;20043;-71
2022/06/25 09:42:19;;;;;;;10.35;8.63;;;;;;;24.59;44.71;100515.59;5140875;27;20047;-71
2022/06/25 09:44:47;;;;;;;12.73;8.68;;;;;;;24.51;45.31;100532.50;5139802;27;20130;-71
2022/06/25 09:47:14;;;;;;;11.70;9.10;;;;;;;24.14;46.65;100524.91;5139312;27;20460;-72
2022/06/25 09:49:41;;;;;;;14.00;9.88;;;;;;;23.80;48.11;100524.19;5139586;27;20051;-72
2022/06/25 09:52:08;;;;;;;17.80;10.18;;;;;;;23.78;48.30;100539.22;5139216;27;20050;-72
2022/06/25 09:54:35;;;;;;;16.08;10.25;;;;;;;23.69;49.09;100533.34;5139426;27;20142;-71
2022/06/25 09:57:02;;;;;;;14.93;10.88;;;;;;;23.48;49.83;100537.69;5140440;27;20075;-71
2022/06/25 09:59:31;;;;;;;20.33;11.02;;;;;;;23.60;49.39;100538.41;5139438;27;20059;-71
2022/06/25 10:01:59;;;;;;;15.50;10.57;;;;;;;23.67;49.44;100533.56;5139719;27;20043;-71
2022/06/25 10:04:28;;;;;;;14.93;10.98;;;;;;;23.40;50.36;100538.09;5140775;27;20517;-72
2022/06/25 10:06:56;;;;;;;16.35;11.93;;;;;;;22.96;51.82;100533.25;5139433;27;20083;-71
2022/06/25 10:09:27;;;;;;;14.13;11.38;;;;;;;23.31;50.76;100536.88;5139460;27;20047;-71
2022/06/25 10:12:02;;;;;;;15.57;11.52;;;;;;;23.37;50.37;100535.88;5140339;27;20051;-71
2022/06/25 10:14:29;;;;;;;17.88;11.65;;;;;;;23.56;49.77;100536.41;5139621;27;20071;-71
2022/06/25 10:16:56;;;;;;;21.73;13.90;;;;;;;23.58;49.91;100543.31;5139395;27;20412;-72
2022/06/25 10:19:24;;;;;;;14.82;8.80;;;;;;;23.37;47.75;100536.69;5137914;27;20047;-70
2022/06/25 10:21:51;;;;;;;13.02;9.98;;;;;;;23.10;48.89;100541.97;5137502;27;20096;-70
2022/06/25 10:24:18;;;;;;;13.18;10.23;;;;;;;22.73;50.32;100536.13;5137915;27;20100;-70
2022/06/25 10:26:45;;;;;;;16.25;11.40;;;;;;;22.38;51.70;100533.50;5137127;27;20119;-69
2022/06/25 10:29:29;;;;;;;14.02;11.00;;;;;;;22.47;51.56;100538.38;5137668;27;20075;-70
2022/06/25 10:32:16;;;;;;;13.18;11.57;;;;;;;22.66;51.38;100536.25;5137344;27;20051;-70
2022/06/25 10:35:04;;;;;;;18.92;11.95;;;;;;;22.38;52.11;100533.50;5137285;27;20055;-70
2022/06/25 10:37:58;;;;;;;15.75;11.63;;;;;;;22.51;51.66;100530.53;5118900;27;20047;-69
2022/06/25 10:40:25;;;;;;;14.98;11.73;;;;;;;22.45;52.06;100528.72;5110157;27;20078;-70
2022/06/25 10:43:00;;;;;;;13.65;11.55;;;;;;;22.52;51.35;100527.53;5136606;27;20547;-69
2022/06/25 10:45:33;;;;;;;14.13;11.77;;;;;;;22.76;51.14;100535.63;5136895;27;20047;-69
2022/06/25 10:48:00;;;;;;;14.63;11.20;;;;;;;23.06;50.44;100526.31;5136325;27;20497;-70
2022/06/25 10:50:30;;;;;;;28.35;13.98;;;;;;;23.26;50.76;100532.13;5136830;27;20534;-70
2022/06/25 10:53:03;;;;;;;17.25;12.68;;;;;;;23.35;49.78;100538.03;5136757;27;20055;-70
2022/06/25 10:55:34;;;;;;;17.60;11.43;;;;;;;23.48;48.94;100541.25;5136343;27;20062;-70
2022/06/25 10:58:22;;;;;;;17.40;12.10;;;;;;;23.30;49.81;100535.22;5136611;27;20051;-70
2022/06/25 11:00:51;;;;;;;17.10;12.07;;;;;;;23.16;50.00;100543.75;5136290;27;20062;-70
2022/06/25 11:03:37;;;;;;;17.35;11.60;;;;;;;23.25;50.34;100534.03;5136637;27;20082;-70
2022/06/25 11:06:22;;;;;;;15.30;11.50;;;;;;;23.38;49.40;100534.78;5135434;27;20051;-70
2022/06/25 11:08:49;;;;;;;17.63;11.25;;;;;;;23.39;49.08;100534.53;5136062;27;20138;-70
2022/06/25 11:11:45;;;;;;;13.32;11.35;;;;;;;23.23;49.78;100538.13;5135797;27;20139;-70
2022/06/25 11:14:20;;;;;;;13.82;11.02;;;;;;;23.04;50.46;100543.78;5133217;27;20094;-70
2022/06/25 11:16:47;;;;;;;15.88;11.93;;;;;;;23.15;50.00;100542.06;5135477;27;20085;-70
2022/06/25 11:19:14;;;;;;;14.63;11.07;;;;;;;23.19;49.78;100547.88;5135821;27;20550;-70
2022/06/25 11:21:43;;;;;;;17.85;12.18;;;;;;;23.13;49.89;100547.00;5135804;27;20082;-70
2022/06/25 11:24:18;;;;;;;14.95;10.50;;;;;;;23.16;50.00;100545.66;5135997;27;20367;-70
2022/06/25 11:29:39;;;;;;;19.83;11.63;;;;;;;22.88;50.47;100543.75;5135391;27;20083;-70
2022/06/25 11:32:08;;;;;;;14.98;11.45;;;;;;;23.52;48.67;100543.50;5135775;27;20075;-70
2022/06/25 11:34:35;;;;;;;15.48;11.60;;;;;;;23.66;48.26;100537.41;5135860;27;20112;-70
2022/06/25 11:37:06;;;;;;;18.55;11.00;;;;;;;23.86;47.44;100538.81;5135149;27;20086;-70